createdAt,value
2019-01-06T06:13:06.343Z,1.60
2019-01-06T06:16:41.098Z,1.80
2019-01-06T06:19:17.077Z,1.70
2019-01-06T06:23:57.613Z,1.73
2019-01-06T06:26:31.676Z,1.70
2019-01-06T06:29:06.363Z,1.40
2019-01-06T06:31:40.522Z,1.63
2019-01-06T06:34:18.376Z,1.80
2019-01-06T06:36:52.707Z,2.07
2019-01-06T06:39:27.933Z,1.67
2019-01-06T06:42:02.205Z,1.60
2019-01-06T06:44:36.050Z,1.57
2019-01-06T06:47:16.404Z,1.87
2019-01-06T06:49:58.412Z,1.87
2019-01-06T06:52:38.393Z,1.50
2019-01-06T06:55:13.271Z,2.03
2019-01-06T06:57:59.639Z,2.00
2019-01-06T07:00:44.629Z,1.70
2019-01-06T07:04:23.799Z,1.37
2019-01-06T07:07:04.338Z,1.70
2019-01-06T07:09:40.834Z,1.73
2019-01-06T07:12:13.753Z,1.50
2019-01-06T07:14:52.948Z,1.60
2019-01-06T07:17:43.927Z,2.93
2019-01-06T07:20:25.849Z,2.03
2019-01-06T07:24:01.677Z,1.77
2019-01-06T07:27:34.708Z,1.50
2019-01-06T07:31:06.731Z,1.57
2019-01-06T07:33:42.747Z,1.70
2019-01-06T07:36:18.290Z,2.40
2019-01-06T07:38:51.800Z,1.90
2019-01-06T07:41:31.245Z,1.93
2019-01-06T07:44:12.555Z,3.03
2019-01-06T07:48:51.659Z,3.70
2019-01-06T07:51:27.893Z,2.80
2019-01-06T07:55:00.393Z,2.73
2019-01-06T07:58:34.075Z,3.03
2019-01-06T08:01:11.572Z,3.00
2019-01-06T08:04:49.097Z,2.97
2019-01-06T08:07:29.860Z,3.00
2019-01-06T08:10:04.012Z,2.77
2019-01-06T08:12:41.207Z,3.10
2019-01-06T08:15:16.063Z,2.87
2019-01-06T08:18:26.975Z,3.50
2019-01-06T08:21:01.970Z,3.10
2019-01-06T08:23:52.240Z,3.37
2019-01-06T08:28:32.980Z,3.20
2019-01-06T08:31:07.740Z,3.50
2019-01-06T08:33:52.006Z,3.37
2019-01-06T08:36:26.011Z,3.37
2019-01-06T08:39:01.008Z,2.80
2019-01-06T08:41:38.961Z,4.53
2019-01-06T08:44:13.135Z,3.43
2019-01-06T08:47:47.081Z,3.90
2019-01-06T08:50:22.077Z,4.03
2019-01-06T08:53:12.167Z,3.73
2019-01-06T08:55:46.989Z,3.53
2019-01-06T08:58:28.736Z,4.25
2019-01-06T09:01:12.627Z,3.13
2019-01-06T09:03:48.322Z,2.13
2019-01-06T09:06:22.432Z,2.13
2019-01-06T09:08:58.281Z,1.70
2019-01-06T09:11:44.521Z,1.90
2019-01-06T09:15:19.231Z,1.90
2019-01-06T09:17:54.346Z,2.37
2019-01-06T09:20:29.250Z,2.47
2019-01-06T09:24:07.341Z,1.80
2019-01-06T09:26:41.603Z,2.00
2019-01-06T09:29:14.966Z,2.10
2019-01-06T09:33:52.161Z,2.67
2019-01-06T09:36:27.099Z,8.17
2019-01-06T09:41:05.015Z,2.20
2019-01-06T09:43:53.671Z,3.93
2019-01-06T09:46:32.395Z,4.43
2019-01-06T09:49:23.777Z,4.70
2019-01-06T09:53:02.556Z,6.67
2019-01-06T09:55:36.629Z,6.57
2019-01-06T09:58:11.128Z,5.63
2019-01-06T10:00:45.632Z,6.00
2019-01-06T10:03:27.135Z,6.17
2019-01-06T10:06:01.135Z,5.60
2019-01-06T10:08:36.207Z,4.70
2019-01-06T10:11:10.832Z,5.00
2019-01-06T10:13:47.756Z,4.33
2019-01-06T10:16:21.895Z,4.43
2019-01-06T10:18:56.263Z,3.73
2019-01-06T10:21:30.732Z,3.90
2019-01-06T10:25:09.237Z,3.60
2019-01-06T10:27:46.840Z,3.83
2019-01-06T10:32:30.497Z,3.37
2019-01-06T10:35:04.551Z,3.03
2019-01-06T10:37:38.692Z,2.80
2019-01-06T10:40:18.283Z,2.90
2019-01-06T10:42:52.672Z,2.20
2019-01-06T10:45:59.505Z,2.60
2019-01-06T10:48:38.793Z,2.63
2019-01-06T10:51:13.232Z,3.00
2019-01-06T10:54:50.840Z,3.07
2019-01-06T10:57:27.212Z,3.73
2019-01-06T11:00:03.256Z,3.47
2019-01-06T11:02:42.259Z,4.17
2019-01-06T11:05:20.163Z,3.43
2019-01-06T11:09:56.975Z,3.97
2019-01-06T11:12:34.981Z,3.67
2019-01-06T11:15:09.094Z,3.50
2019-01-06T11:19:52.585Z,3.67
2019-01-06T11:22:27.839Z,2.50
2019-01-06T11:25:08.811Z,2.83
2019-01-06T11:27:54.757Z,2.60
2019-01-06T11:31:34.586Z,2.87
2019-01-06T11:35:08.366Z,3.90
2019-01-06T11:38:43.428Z,4.03
2019-01-06T11:42:17.484Z,3.60
2019-01-06T11:44:51.453Z,3.37
2019-01-06T11:47:44.330Z,3.60
2019-01-06T11:50:22.894Z,3.57
2019-01-06T11:55:01.081Z,3.60
2019-01-06T11:57:35.848Z,3.90
2019-01-06T12:00:10.125Z,4.00
2019-01-06T12:04:49.888Z,4.27
2019-01-06T12:07:27.825Z,4.60
2019-01-06T12:10:02.209Z,3.93
2019-01-06T12:14:41.509Z,3.50
2019-01-06T12:18:16.396Z,4.20
2019-01-06T12:20:51.071Z,3.87
2019-01-06T12:23:26.053Z,4.03
2019-01-06T12:26:02.013Z,3.57
2019-01-06T12:28:35.420Z,4.30
2019-01-06T12:31:15.363Z,4.17
2019-01-06T12:33:50.863Z,4.60
2019-01-06T12:36:29.123Z,3.90
2019-01-06T12:39:08.113Z,4.03
2019-01-06T12:41:41.639Z,4.50
2019-01-06T12:46:59.571Z,4.33
2019-01-06T12:50:31.548Z,4.30
2019-01-06T12:53:07.855Z,4.50
2019-01-06T12:55:47.911Z,6.13
2019-01-06T12:58:21.161Z,4.43
2019-01-06T13:00:59.369Z,5.03
2019-01-06T13:03:37.373Z,4.97
2019-01-06T13:07:13.204Z,4.60
2019-01-06T13:09:49.248Z,4.73
2019-01-06T13:12:26.459Z,4.43
2019-01-06T13:15:08.709Z,3.37
2019-01-06T13:17:43.218Z,2.93
2019-01-06T13:20:17.360Z,3.03
2019-01-06T13:22:57.326Z,2.73
2019-01-06T13:26:32.737Z,3.07
2019-01-06T13:31:13.847Z,3.10
2019-01-06T13:35:55.104Z,5.97
2019-01-06T13:39:03.630Z,6.43
2019-01-06T13:41:40.924Z,6.13
2019-01-06T13:44:19.541Z,6.00
2019-01-06T13:46:54.811Z,7.03
2019-01-06T13:49:29.307Z,6.40
2019-01-06T13:52:23.928Z,5.87
2019-01-06T13:55:06.897Z,5.60
2019-01-06T13:57:40.998Z,9.33
2019-01-06T14:00:15.792Z,7.00
2019-01-06T14:03:54.578Z,6.97
2019-01-06T14:08:33.891Z,6.93
2019-01-06T14:11:10.816Z,5.03
2019-01-06T14:13:45.671Z,7.20
2019-01-06T14:16:19.645Z,7.70
2019-01-06T14:18:54.047Z,6.37
2019-01-06T14:21:34.064Z,4.27
2019-01-06T14:24:08.118Z,4.47
2019-01-06T14:27:40.410Z,5.07
2019-01-06T14:30:14.342Z,5.13
2019-01-06T14:32:49.575Z,5.40
2019-01-06T14:35:25.776Z,5.30
2019-01-06T14:38:04.897Z,5.30
2019-01-06T14:40:41.171Z,5.27
2019-01-06T14:43:16.312Z,4.57
2019-01-06T14:45:50.837Z,4.80
2019-01-06T14:48:26.701Z,5.23
2019-01-06T14:51:00.932Z,5.80
2019-01-06T14:53:42.755Z,5.47
2019-01-06T14:56:20.711Z,5.77
2019-01-06T14:58:54.923Z,5.77
2019-01-06T15:02:27.991Z,5.43
2019-01-06T15:05:03.330Z,7.40
2019-01-06T15:07:37.309Z,6.30
2019-01-06T15:10:12.400Z,6.50
2019-01-06T15:13:16.675Z,7.60
2019-01-06T15:16:51.705Z,10.30
2019-01-06T15:19:25.856Z,14.03
2019-01-06T15:23:03.724Z,10.53
2019-01-06T15:25:37.890Z,8.70
2019-01-06T15:28:13.904Z,9.40
2019-01-06T15:30:48.323Z,9.93
2019-01-06T15:33:39.723Z,9.80
2019-01-06T15:37:13.459Z,9.17
2019-01-06T15:39:47.688Z,8.50
2019-01-06T15:43:24.701Z,9.43
2019-01-06T15:45:59.498Z,8.93
2019-01-06T15:48:36.481Z,7.93
2019-01-06T15:51:11.051Z,9.10
2019-01-06T15:54:44.643Z,11.00
2019-01-06T15:57:22.084Z,14.30
2019-01-06T15:59:56.126Z,15.67
2019-01-06T16:02:36.033Z,18.83
2019-01-06T16:05:10.573Z,7.23
2019-01-06T16:08:00.784Z,5.40
2019-01-06T16:10:35.341Z,11.27
2019-01-06T16:13:10.242Z,10.80
2019-01-06T16:15:44.951Z,10.07
2019-01-06T16:18:19.164Z,9.57
2019-01-06T16:22:56.433Z,12.07
2019-01-06T16:25:30.831Z,12.33
2019-01-06T16:29:04.189Z,11.27
2019-01-06T16:31:47.629Z,11.00
2019-01-06T16:36:27.573Z,10.70
2019-01-06T16:39:02.163Z,9.93
2019-01-06T16:42:39.531Z,11.40
2019-01-06T16:45:18.504Z,12.23
2019-01-06T16:47:52.565Z,11.17
2019-01-06T16:50:26.848Z,12.60
2019-01-06T16:53:01.449Z,12.83
2019-01-06T16:55:36.424Z,12.03
2019-01-06T16:59:08.683Z,14.07
2019-01-06T17:01:43.128Z,18.87
2019-01-06T17:04:37.473Z,15.40
2019-01-06T17:07:42.628Z,12.70
2019-01-06T17:10:17.043Z,14.27
2019-01-06T17:12:52.459Z,13.23
2019-01-06T17:16:26.993Z,13.43
2019-01-06T17:19:04.967Z,13.40
2019-01-06T17:22:40.135Z,12.80
2019-01-06T17:25:16.075Z,12.53
2019-01-06T17:28:23.644Z,13.17
2019-01-06T17:31:18.192Z,9.13
2019-01-06T17:33:53.010Z,15.20
2019-01-06T17:36:27.885Z,14.83
2019-01-06T17:39:02.352Z,12.60
2019-01-06T17:41:41.660Z,15.03
2019-01-06T17:44:16.364Z,14.33
2019-01-06T17:48:58.163Z,12.93
2019-01-06T17:51:47.120Z,13.07
2019-01-06T17:54:30.618Z,15.10
2019-01-06T17:57:05.993Z,14.33
2019-01-06T17:59:43.271Z,14.40
2019-01-06T18:02:22.006Z,13.27
2019-01-06T18:04:56.677Z,14.03
2019-01-06T18:07:31.035Z,14.27
2019-01-06T18:10:41.123Z,13.67
2019-01-06T18:15:19.050Z,13.07
2019-01-06T18:17:54.303Z,13.00
2019-01-06T18:22:36.463Z,12.83
2019-01-06T18:25:16.042Z,13.73
2019-01-06T18:27:50.783Z,14.77
2019-01-06T18:30:24.875Z,12.77
2019-01-06T18:32:59.413Z,12.30
2019-01-06T18:36:04.579Z,12.20
2019-01-06T18:38:55.087Z,10.00
2019-01-06T18:41:29.601Z,11.60
2019-01-06T18:44:06.802Z,11.10
2019-01-06T18:48:49.548Z,9.67
2019-01-06T18:51:24.961Z,9.73
2019-01-06T18:54:11.440Z,11.60
2019-01-06T18:57:00.432Z,10.13
2019-01-06T18:59:36.959Z,10.17
2019-01-06T19:03:14.019Z,10.10
2019-01-06T19:06:49.123Z,10.20
2019-01-06T19:09:27.570Z,11.37
2019-01-06T19:14:04.492Z,12.40
2019-01-06T19:16:45.676Z,11.40
2019-01-06T19:19:21.323Z,12.67
2019-01-06T19:21:54.328Z,11.77
2019-01-06T19:24:30.511Z,12.87
2019-01-06T19:27:14.048Z,18.10
2019-01-06T19:29:57.289Z,17.67
2019-01-06T19:33:31.532Z,13.13
2019-01-06T19:36:06.024Z,10.90
2019-01-06T19:39:12.961Z,12.13
2019-01-06T19:41:59.359Z,11.27
2019-01-06T19:46:39.579Z,12.27
2019-01-06T19:49:21.675Z,12.33
2019-01-06T19:51:55.679Z,12.47
2019-01-06T19:54:34.050Z,12.43
2019-01-06T19:57:07.923Z,10.70
2019-01-06T20:00:43.412Z,12.50
2019-01-06T20:03:23.747Z,12.10
2019-01-06T20:05:58.207Z,11.40
2019-01-06T20:08:32.482Z,10.63
2019-01-06T20:11:06.787Z,10.87
2019-01-06T20:13:40.644Z,11.80
2019-01-06T20:16:14.635Z,9.80
2019-01-06T20:18:50.025Z,10.03
2019-01-06T20:21:26.306Z,13.57
2019-01-06T20:24:01.307Z,14.53
2019-01-06T20:26:39.680Z,10.47
2019-01-06T20:29:17.119Z,9.97
2019-01-06T20:31:51.828Z,10.93
2019-01-06T20:34:44.283Z,10.93
2019-01-06T20:37:36.448Z,10.27
2019-01-06T20:40:10.916Z,10.40
2019-01-06T20:43:21.967Z,19.63
2019-01-06T20:46:59.715Z,15.07
2019-01-06T20:49:43.651Z,10.73
2019-01-06T20:52:19.291Z,10.70
2019-01-06T20:54:56.299Z,13.13
2019-01-06T20:57:34.752Z,15.27
2019-01-06T21:00:09.384Z,11.23
2019-01-06T21:02:43.375Z,11.33
2019-01-06T21:05:17.773Z,12.80
2019-01-06T21:07:52.267Z,11.17
2019-01-06T21:10:28.459Z,11.20
2019-01-06T21:13:33.743Z,8.40
2019-01-06T21:16:08.307Z,12.73
2019-01-06T21:19:44.210Z,9.70
2019-01-06T21:23:17.166Z,10.73
2019-01-06T21:25:51.703Z,10.70
2019-01-06T21:28:56.745Z,11.00
2019-01-06T21:32:02.643Z,10.30
2019-01-06T21:34:39.171Z,11.97
2019-01-06T21:37:15.620Z,12.77
2019-01-06T21:40:52.218Z,12.80
2019-01-06T21:45:34.109Z,12.63
2019-01-06T21:48:08.329Z,15.83
2019-01-06T21:50:54.429Z,15.20
2019-01-06T21:53:36.881Z,12.90
2019-01-06T21:56:13.859Z,13.37
